首页
METAR-TAF:

METAR-TAF

机场 :

多倫多皮爾遜國際機場

多伦多, 安大略省, 加拿大

纬度: 43-40N, 经度: 079-38W, 海拔: 173米

当前天气观测

该预报发布于16分钟前的10:00 UTC
风速8节,风向东转东北
温度 -13°C
湿度 78%
气压 1026 hPa
能見度: 24.1公里
少量云层高于6000英尺

METAR: CYYZ 131000Z 06008KT 15SM FEW060 M13/M16 A3031 RMK SC1 SLP280

时间: 05:16 (10:16 UTC)

预报

该预报发布于1小时和38分钟前的08:38 UTC
预报有效从13日的 09点(UTC)到 14日的 12点(UTC)
风速7节,风向北转西北
能見度: 10公里
少量云层高于5000英尺
成为
从 13日的 09点(UTC)到 13日的 10点(UTC)
风速8节,风向北转西北
从 13日的 1700点(UTC)
风速8节,风向南转南东
能見度: 10公里
少量云层高于2000英尺
多云层高于15000英尺
从 13日的 2000点(UTC)
风速8节,风向南转南东
能見度: 10公里
多云层高于1500英尺
阴天层高于10000英尺
从 13日的 2200点(UTC)
风速3节,风向多变
能見度: 8.0公里
多云层高于1500英尺
阴天层高于8000英尺
小雪
从 14日的 0000点(UTC)
风速5节,风向东北
能見度: 3.2公里
阴天层高于1500英尺
小雪
成为
从 14日的 05点(UTC)到 14日的 07点(UTC)
风速7节,风向
从 14日的 0800点(UTC)
风速7节,风向
阴天层高于1200英尺
小雪

TAF: CYYZ 130838Z 1309/1412 34007KT P6SM FEW050 BECMG 1309/1310 33008KT FM131700 15008KT P6SM FEW020 BKN150 FM132000 15008KT P6SM BKN015 OVC100 FM132200 VRB03KT 5SM -SN BKN015 OVC080 FM140000 05005KT 2SM -SN OVC015 BECMG 1405/1407 19007KT FM140800 19007KT 11/2SM -SN OVC012 RMK NXT FCST BY 131200Z

超过4000个机场的气象观测和天气预报(METAR&TAF报告)。

可查询的气象台以黄色和红色小点在地图上表示。

将鼠标移到小点上方,可查看气象台名称。

然后点击查看天气观测和预报。

如需切换地图:点击带黑十字的绿色按钮放大地图;点击带横线的绿色按钮缩小地图;或者点击绿色箭头查看邻近地区的地图。


METAR-TAF: